createdAt,value
2022-11-03T00:01:56.763Z,28.13
2022-11-03T00:04:26.114Z,25.23
2022-11-03T00:06:56.492Z,27.88
2022-11-03T00:09:27.277Z,22.73
2022-11-03T00:11:56.682Z,27.60
2022-11-03T00:14:27.177Z,24.88
2022-11-03T00:16:56.487Z,25.70
2022-11-03T00:19:25.573Z,26.85
2022-11-03T00:21:54.890Z,29.98
2022-11-03T00:24:27.275Z,23.85
2022-11-03T00:26:56.461Z,30.52
2022-11-03T00:29:26.981Z,28.75
2022-11-03T00:31:56.157Z,31.00
2022-11-03T00:34:25.452Z,24.02
2022-11-03T00:36:55.822Z,27.92
2022-11-03T00:39:24.762Z,25.05
2022-11-03T00:41:53.856Z,25.55
2022-11-03T00:44:22.905Z,29.67
2022-11-03T00:46:52.902Z,27.30
2022-11-03T00:49:21.912Z,29.27
2022-11-03T00:51:51.405Z,31.00
2022-11-03T00:54:20.357Z,27.63
2022-11-03T00:56:49.282Z,28.38
2022-11-03T00:59:28.711Z,26.90
2022-11-03T01:02:02.501Z,25.38
2022-11-03T01:04:49.185Z,29.23
2022-11-03T01:07:22.445Z,29.58
2022-11-03T01:09:51.426Z,32.97
2022-11-03T01:12:20.912Z,27.08
2022-11-03T01:14:51.558Z,31.65
2022-11-03T01:17:34.099Z,29.13
2022-11-03T01:20:03.747Z,29.58
2022-11-03T01:22:32.589Z,30.85
2022-11-03T01:25:01.770Z,34.13
2022-11-03T01:27:30.755Z,29.23
2022-11-03T01:30:00.064Z,32.10
2022-11-03T01:32:30.869Z,31.38
2022-11-03T01:34:59.888Z,33.22
2022-11-03T01:37:28.780Z,29.33
2022-11-03T01:39:57.566Z,31.48
2022-11-03T01:42:26.543Z,32.22
2022-11-03T01:44:55.714Z,36.53
2022-11-03T01:47:29.318Z,37.47
2022-11-03T01:50:04.479Z,30.48
2022-11-03T01:52:37.998Z,47.40
2022-11-03T01:55:11.780Z,33.40
2022-11-03T01:57:44.563Z,34.60
2022-11-03T02:00:15.022Z,34.20
2022-11-03T02:02:44.936Z,29.92
2022-11-03T02:05:17.023Z,35.28
2022-11-03T02:07:53.050Z,38.20
2022-11-03T02:10:23.442Z,35.55
2022-11-03T02:12:53.670Z,35.45
2022-11-03T02:15:24.488Z,34.22
2022-11-03T02:17:56.189Z,31.92
2022-11-03T02:20:28.930Z,31.85
2022-11-03T02:23:13.484Z,34.78
2022-11-03T02:25:49.043Z,32.08
2022-11-03T02:28:20.298Z,28.60
2022-11-03T02:31:10.117Z,36.22
2022-11-03T02:33:51.370Z,33.20
2022-11-03T02:36:25.918Z,31.17
2022-11-03T02:39:01.173Z,29.35
2022-11-03T02:41:35.748Z,32.22
2022-11-03T02:44:09.462Z,27.73
2022-11-03T02:49:12.907Z,29.98
2022-11-03T02:51:42.862Z,28.23
2022-11-03T02:54:17.605Z,30.40
2022-11-03T02:56:52.689Z,30.77
2022-11-03T02:59:28.826Z,28.67
2022-11-03T03:02:04.653Z,30.60
2022-11-03T03:04:38.508Z,31.45
2022-11-03T03:09:43.108Z,34.55
2022-11-03T03:12:17.195Z,29.45
2022-11-03T03:14:48.464Z,31.27
2022-11-03T03:17:25.327Z,27.75
2022-11-03T03:20:03.236Z,38.03
2022-11-03T03:22:41.589Z,28.13
2022-11-03T03:25:16.197Z,28.38
2022-11-03T03:27:50.303Z,30.40
2022-11-03T03:30:20.183Z,30.20
2022-11-03T03:32:52.689Z,31.17
2022-11-03T03:35:25.158Z,28.25
2022-11-03T03:38:04.565Z,30.00
2022-11-03T03:40:37.781Z,32.38
2022-11-03T03:43:11.305Z,32.25
2022-11-03T03:45:44.612Z,31.05
2022-11-03T03:48:16.748Z,30.17
2022-11-03T03:50:48.299Z,32.45
2022-11-03T03:53:19.955Z,30.55
2022-11-03T03:55:51.024Z,31.80
2022-11-03T03:58:21.308Z,30.58
2022-11-03T04:00:53.505Z,29.65
2022-11-03T04:03:24.625Z,28.50
2022-11-03T04:05:55.098Z,31.48
2022-11-03T04:08:24.450Z,33.90
2022-11-03T04:11:11.101Z,28.48
2022-11-03T04:13:59.378Z,34.35
2022-11-03T04:16:46.271Z,32.50
2022-11-03T04:19:33.777Z,34.65
2022-11-03T04:22:18.336Z,33.88
2022-11-03T04:24:48.493Z,34.22
2022-11-03T04:27:38.732Z,33.67
2022-11-03T04:30:16.961Z,35.22
2022-11-03T04:32:47.640Z,37.60
2022-11-03T04:35:20.609Z,36.70
2022-11-03T04:37:53.433Z,34.75
2022-11-03T04:40:22.678Z,35.85
2022-11-03T04:42:51.784Z,33.88
2022-11-03T04:45:30.041Z,35.97
2022-11-03T04:48:03.038Z,32.85
2022-11-03T04:50:32.309Z,30.90
2022-11-03T04:53:02.302Z,32.72
2022-11-03T04:55:32.578Z,35.03
2022-11-03T04:58:06.283Z,35.65
2022-11-03T05:00:36.827Z,33.55
2022-11-03T05:03:06.435Z,37.35
2022-11-03T05:05:40.381Z,31.23
2022-11-03T05:10:39.645Z,29.08
2022-11-03T05:13:18.088Z,30.90
2022-11-03T05:15:50.961Z,31.30
2022-11-03T05:21:07.577Z,40.05
2022-11-03T05:23:40.931Z,41.83
2022-11-03T05:26:18.218Z,33.90
2022-11-03T05:28:53.095Z,35.08
2022-11-03T05:31:27.380Z,38.22
2022-11-03T05:34:01.917Z,60.20
2022-11-03T05:36:32.608Z,47.10
2022-11-03T05:39:16.197Z,35.78
2022-11-03T05:41:45.812Z,35.10
2022-11-03T05:44:29.230Z,37.03
2022-11-03T05:47:04.465Z,32.30
2022-11-03T05:49:36.598Z,31.02
2022-11-03T05:52:07.407Z,32.10
2022-11-03T05:54:37.115Z,34.53
2022-11-03T05:57:11.952Z,35.92
2022-11-03T05:59:42.565Z,38.05
2022-11-03T06:02:30.037Z,33.15
2022-11-03T06:04:59.608Z,30.00
2022-11-03T06:07:32.819Z,28.10
2022-11-03T06:10:01.797Z,27.30
2022-11-03T06:12:31.875Z,33.55
2022-11-03T06:15:01.112Z,23.13
2022-11-03T06:17:31.817Z,23.80
2022-11-03T06:20:03.004Z,24.00
2022-11-03T06:22:37.209Z,25.25
2022-11-03T06:25:19.971Z,25.00
2022-11-03T06:27:50.524Z,21.27
2022-11-03T06:30:25.484Z,18.77
2022-11-03T06:32:59.036Z,18.70
2022-11-03T06:35:28.361Z,21.08
2022-11-03T06:37:58.630Z,18.17
2022-11-03T06:40:39.107Z,18.05
2022-11-03T06:43:17.893Z,16.92
2022-11-03T06:45:55.757Z,19.58
2022-11-03T06:48:29.666Z,18.25
2022-11-03T06:51:00.772Z,14.38
2022-11-03T06:53:33.894Z,14.68
2022-11-03T06:56:03.352Z,14.20
2022-11-03T06:58:35.871Z,14.10
2022-11-03T07:01:13.707Z,14.80
2022-11-03T07:03:44.749Z,14.52
2022-11-03T07:06:19.001Z,15.52
2022-11-03T07:08:51.467Z,15.25
2022-11-03T07:11:22.526Z,17.15
2022-11-03T07:13:54.164Z,14.95
2022-11-03T07:16:29.326Z,15.15
2022-11-03T07:19:01.370Z,13.65
2022-11-03T07:21:37.606Z,13.38
2022-11-03T07:24:16.851Z,15.30
2022-11-03T07:26:45.908Z,13.13
2022-11-03T07:29:21.917Z,13.32
2022-11-03T07:31:55.668Z,14.68
2022-11-03T07:34:32.748Z,15.85
2022-11-03T07:37:02.345Z,17.35
2022-11-03T07:39:39.278Z,16.25
2022-11-03T07:42:16.658Z,14.15
2022-11-03T07:44:45.702Z,15.43
2022-11-03T07:47:17.561Z,15.60
2022-11-03T07:49:48.672Z,18.88
2022-11-03T07:52:21.675Z,17.88
2022-11-03T07:54:51.989Z,18.85
2022-11-03T07:57:24.529Z,22.27
2022-11-03T07:59:54.991Z,17.95
2022-11-03T08:02:32.030Z,18.05
2022-11-03T08:05:02.910Z,16.98
2022-11-03T08:07:32.854Z,20.45
2022-11-03T08:10:02.010Z,19.48
2022-11-03T08:12:31.015Z,20.63
2022-11-03T08:15:00.588Z,23.55
2022-11-03T08:17:29.541Z,18.20
2022-11-03T08:19:58.805Z,21.20
2022-11-03T08:22:30.073Z,18.48
2022-11-03T08:24:59.083Z,14.30
2022-11-03T08:27:28.356Z,16.77
2022-11-03T08:29:59.405Z,15.27
2022-11-03T08:32:31.434Z,15.75
2022-11-03T08:35:00.413Z,16.52
2022-11-03T08:37:32.073Z,13.95
2022-11-03T08:40:01.124Z,15.55
2022-11-03T08:42:30.084Z,14.85
2022-11-03T08:45:00.638Z,18.15
2022-11-03T08:47:29.850Z,11.30
2022-11-03T08:49:59.032Z,13.27
2022-11-03T08:52:28.459Z,13.68
2022-11-03T08:54:58.743Z,9.55
2022-11-03T08:57:27.597Z,12.80
2022-11-03T08:59:56.910Z,11.50
2022-11-03T09:02:26.297Z,11.27
2022-11-03T09:04:55.509Z,9.75
2022-11-03T09:07:24.815Z,12.25
2022-11-03T09:12:44.629Z,12.73
2022-11-03T09:15:13.596Z,12.88
2022-11-03T09:17:44.774Z,11.13
2022-11-03T09:20:15.294Z,9.10
2022-11-03T09:22:44.184Z,8.68
2022-11-03T09:25:13.182Z,10.18
2022-11-03T09:28:31.104Z,7.95
2022-11-03T09:31:00.045Z,10.50
2022-11-03T09:33:46.922Z,6.32
2022-11-03T09:36:16.219Z,6.15
2022-11-03T09:38:45.336Z,4.35
2022-11-03T09:41:26.187Z,3.50
2022-11-03T09:44:00.586Z,4.32
2022-11-03T09:46:31.031Z,5.10
2022-11-03T09:49:00.447Z,3.08
2022-11-03T09:51:30.243Z,3.63
2022-11-03T09:54:03.152Z,3.20
2022-11-03T09:56:32.851Z,2.55
2022-11-03T09:59:03.373Z,3.03
2022-11-03T10:01:35.460Z,2.75
2022-11-03T10:04:14.492Z,4.43
2022-11-03T10:06:43.794Z,3.65
2022-11-03T10:09:18.936Z,3.40
2022-11-03T10:11:48.863Z,4.20
2022-11-03T10:14:23.358Z,5.50
2022-11-03T10:17:00.575Z,3.35
2022-11-03T10:19:30.287Z,3.08
2022-11-03T10:21:59.397Z,2.20
2022-11-03T10:24:28.242Z,2.42
2022-11-03T10:26:57.190Z,3.53
2022-11-03T10:29:33.419Z,2.85
2022-11-03T10:32:05.383Z,1.75
2022-11-03T10:34:41.231Z,3.38
2022-11-03T10:37:29.413Z,2.40
2022-11-03T10:39:59.858Z,2.92
2022-11-03T10:42:35.477Z,5.65
2022-11-03T10:45:18.318Z,3.42
2022-11-03T10:48:03.335Z,3.70
2022-11-03T10:50:32.324Z,3.72
2022-11-03T10:53:01.271Z,3.97
2022-11-03T10:55:30.351Z,4.63
2022-11-03T10:58:01.340Z,3.45
2022-11-03T11:00:33.348Z,4.57
2022-11-03T11:03:02.833Z,4.85
2022-11-03T11:05:31.868Z,5.97
2022-11-03T11:08:02.391Z,3.13
2022-11-03T11:10:35.168Z,2.72
2022-11-03T11:13:07.009Z,2.43
2022-11-03T11:15:40.818Z,3.17
2022-11-03T11:18:10.804Z,3.63
2022-11-03T11:20:41.689Z,3.20
2022-11-03T11:23:53.099Z,2.55
2022-11-03T11:26:35.829Z,2.70
2022-11-03T11:29:45.103Z,2.85
2022-11-03T11:32:50.551Z,3.13
2022-11-03T11:36:02.661Z,6.93
2022-11-03T11:39:03.494Z,7.85
2022-11-03T11:42:13.928Z,5.43
2022-11-03T11:44:58.205Z,4.70
2022-11-03T11:47:34.001Z,5.18
2022-11-03T11:50:38.808Z,4.85
2022-11-03T11:53:14.413Z,3.40
2022-11-03T11:55:50.589Z,4.13
2022-11-03T11:58:28.594Z,4.00
2022-11-03T12:01:02.701Z,4.63
2022-11-03T12:03:42.668Z,4.22
2022-11-03T12:06:14.451Z,4.72
2022-11-03T12:08:44.679Z,5.25
2022-11-03T12:11:16.834Z,3.65
2022-11-03T12:13:49.267Z,4.28
2022-11-03T12:16:30.236Z,5.53
2022-11-03T12:19:40.813Z,5.72
2022-11-03T12:22:11.802Z,3.40
2022-11-03T12:24:51.070Z,4.78
2022-11-03T12:27:44.679Z,3.65
2022-11-03T12:30:16.773Z,4.03
2022-11-03T12:32:50.774Z,4.60
2022-11-03T12:35:20.032Z,3.88
2022-11-03T12:37:49.399Z,3.92
2022-11-03T12:40:19.514Z,3.55
2022-11-03T12:42:50.915Z,3.90
2022-11-03T12:45:24.169Z,3.67
2022-11-03T12:47:54.074Z,3.00
2022-11-03T12:50:23.657Z,3.75
2022-11-03T12:52:55.632Z,4.05
2022-11-03T12:55:25.670Z,5.38
2022-11-03T12:57:57.526Z,2.60
2022-11-03T13:00:27.097Z,4.38
2022-11-03T13:02:56.481Z,4.53
2022-11-03T13:05:26.056Z,5.80
2022-11-03T13:07:55.835Z,3.65
2022-11-03T13:10:25.420Z,4.75
2022-11-03T13:12:57.088Z,4.88
2022-11-03T13:15:26.239Z,5.07
2022-11-03T13:18:12.816Z,6.10
2022-11-03T13:20:45.098Z,6.25
2022-11-03T13:23:17.442Z,5.95
2022-11-03T13:25:49.724Z,7.28
2022-11-03T13:28:19.915Z,8.20
2022-11-03T13:30:49.524Z,7.18
2022-11-03T13:33:18.493Z,7.53
2022-11-03T13:35:49.314Z,6.63
2022-11-03T13:38:18.692Z,8.02
2022-11-03T13:40:56.599Z,7.13
2022-11-03T13:43:29.184Z,6.32
2022-11-03T13:46:02.511Z,6.25
2022-11-03T13:51:24.405Z,7.03
2022-11-03T13:59:35.544Z,8.20
2022-11-03T14:04:57.056Z,6.07
2022-11-03T14:07:27.104Z,5.65
2022-11-03T14:09:58.071Z,7.88
2022-11-03T14:12:32.909Z,6.65
2022-11-03T14:19:20.877Z,7.43
2022-11-03T14:21:50.028Z,9.00
2022-11-03T14:24:18.947Z,6.70
2022-11-03T14:26:48.451Z,11.50
2022-11-03T14:29:17.613Z,8.18
2022-11-03T14:31:48.110Z,8.48
2022-11-03T14:34:17.230Z,6.80
2022-11-03T14:36:46.635Z,5.97
2022-11-03T14:39:16.249Z,6.13
2022-11-03T14:42:03.090Z,4.85
2022-11-03T14:44:32.708Z,4.75
2022-11-03T14:47:04.863Z,5.40
2022-11-03T14:49:47.353Z,4.10
2022-11-03T14:52:17.871Z,4.80
2022-11-03T14:54:46.972Z,3.85
2022-11-03T14:57:16.281Z,4.38
2022-11-03T14:59:48.022Z,4.28
2022-11-03T15:02:22.641Z,4.55
2022-11-03T15:04:51.813Z,4.18
2022-11-03T15:07:21.156Z,4.32
2022-11-03T15:09:50.531Z,3.55
2022-11-03T15:12:21.532Z,4.88
2022-11-03T15:14:51.550Z,5.57
2022-11-03T15:17:22.348Z,5.53
2022-11-03T15:19:51.363Z,5.80
2022-11-03T15:22:20.431Z,6.75
2022-11-03T15:27:39.060Z,5.20
2022-11-03T15:30:09.682Z,5.47
2022-11-03T15:32:39.999Z,4.70
2022-11-03T15:35:10.551Z,3.90
2022-11-03T15:37:39.809Z,5.53
2022-11-03T15:40:18.164Z,4.93
2022-11-03T15:42:47.239Z,4.53
2022-11-03T15:45:16.675Z,4.88
2022-11-03T15:47:47.125Z,4.25
2022-11-03T15:50:16.858Z,4.47
2022-11-03T15:52:46.065Z,5.10
2022-11-03T15:55:15.457Z,5.68
2022-11-03T15:57:44.759Z,5.53
2022-11-03T16:00:14.687Z,5.22
2022-11-03T16:02:43.912Z,4.82
2022-11-03T16:05:14.723Z,6.45
2022-11-03T16:07:43.939Z,4.95
2022-11-03T16:10:13.016Z,5.32
2022-11-03T16:12:43.168Z,7.55
2022-11-03T16:15:12.531Z,6.50
2022-11-03T16:17:45.553Z,6.38
2022-11-03T16:20:16.390Z,6.93
2022-11-03T16:22:45.271Z,7.18
2022-11-03T16:25:16.681Z,7.25
2022-11-03T16:30:16.781Z,7.28
2022-11-03T16:32:45.830Z,8.27
2022-11-03T16:35:16.076Z,8.60
2022-11-03T16:37:46.737Z,7.38
2022-11-03T16:40:19.406Z,9.20
2022-11-03T16:42:49.141Z,8.30
2022-11-03T16:45:20.145Z,10.43
2022-11-03T16:47:52.735Z,7.47
2022-11-03T16:50:23.249Z,10.45
2022-11-03T16:52:52.459Z,7.90
2022-11-03T16:55:21.686Z,7.15
2022-11-03T16:57:51.982Z,6.85
2022-11-03T17:00:21.660Z,7.63
2022-11-03T17:02:51.159Z,7.45
2022-11-03T17:05:21.872Z,6.32
2022-11-03T17:07:54.219Z,8.35
2022-11-03T17:10:24.260Z,6.50
2022-11-03T17:12:53.702Z,6.32
2022-11-03T17:15:22.621Z,5.32
2022-11-03T17:17:51.995Z,5.40
2022-11-03T17:20:20.795Z,6.15
2022-11-03T17:22:51.016Z,8.05
2022-11-03T17:25:20.236Z,8.75
2022-11-03T17:27:52.540Z,6.47
2022-11-03T17:30:24.159Z,5.30
2022-11-03T17:35:02.313Z,8.23
2022-11-03T17:36:51.720Z,5.65
2022-11-03T17:39:28.720Z,6.50
2022-11-03T17:42:13.326Z,6.88
2022-11-03T17:44:43.534Z,7.35
2022-11-03T17:47:12.950Z,6.72
2022-11-03T17:49:44.182Z,6.50
2022-11-03T17:52:23.469Z,5.35
2022-11-03T17:55:00.403Z,7.13
2022-11-03T17:57:30.171Z,6.13
2022-11-03T18:00:02.184Z,8.48
2022-11-03T18:02:42.096Z,11.07
2022-11-03T18:05:22.156Z,6.38
2022-11-03T18:07:52.988Z,5.63
2022-11-03T18:10:27.596Z,5.15
2022-11-03T18:13:18.708Z,5.38
2022-11-03T18:15:58.051Z,7.18
2022-11-03T18:18:32.128Z,6.13
2022-11-03T18:21:01.934Z,4.90
2022-11-03T18:23:33.117Z,6.38
2022-11-03T18:26:05.734Z,5.13
2022-11-03T18:28:35.554Z,4.17
2022-11-03T18:31:05.059Z,4.32
2022-11-03T18:33:37.439Z,5.25
2022-11-03T18:36:09.810Z,4.30
2022-11-03T18:38:42.271Z,5.30
2022-11-03T18:41:36.441Z,4.82
2022-11-03T18:46:44.076Z,5.43
2022-11-03T18:49:13.664Z,4.50
2022-11-03T18:51:49.000Z,4.68
2022-11-03T18:54:23.023Z,5.68
2022-11-03T18:56:55.536Z,5.57
2022-11-03T18:59:27.419Z,5.60
2022-11-03T19:01:59.334Z,5.93
2022-11-03T19:04:29.185Z,8.45
2022-11-03T19:06:58.658Z,5.88
2022-11-03T19:09:28.566Z,5.18
2022-11-03T19:11:59.685Z,8.45
2022-11-03T19:14:32.280Z,6.75
2022-11-03T19:19:55.416Z,6.97
2022-11-03T19:22:26.427Z,6.13
2022-11-03T19:24:55.961Z,6.05
2022-11-03T19:27:28.920Z,6.45
2022-11-03T19:30:01.350Z,7.05
2022-11-03T19:32:34.754Z,8.32
2022-11-03T19:35:07.530Z,6.35
2022-11-03T19:37:36.886Z,9.05
2022-11-03T19:40:09.582Z,9.30
2022-11-03T19:42:39.843Z,7.13
2022-11-03T19:45:16.357Z,6.72
2022-11-03T19:48:18.121Z,7.78
2022-11-03T19:50:42.286Z,7.18
2022-11-03T19:53:22.522Z,5.55
2022-11-03T19:56:03.594Z,6.75
2022-11-03T19:58:35.961Z,7.07
2022-11-03T20:01:08.655Z,7.38
2022-11-03T20:10:22.357Z,9.45
2022-11-03T20:12:58.867Z,6.28
2022-11-03T20:15:46.027Z,6.97
2022-11-03T20:18:19.569Z,6.07
2022-11-03T20:23:32.987Z,6.20
2022-11-03T20:26:24.662Z,4.95
2022-11-03T20:30:04.717Z,5.00
2022-11-03T20:33:20.775Z,5.97
2022-11-03T20:36:07.381Z,6.13
2022-11-03T20:39:02.824Z,6.75
2022-11-03T20:41:51.191Z,6.60
2022-11-03T20:44:30.930Z,5.72
2022-11-03T20:47:04.264Z,4.35
2022-11-03T20:49:52.384Z,6.70
2022-11-03T20:52:43.808Z,6.28
2022-11-03T20:55:27.085Z,4.32
2022-11-03T20:57:56.999Z,4.60
2022-11-03T21:00:41.560Z,4.80
2022-11-03T21:03:37.544Z,5.15
2022-11-03T21:06:20.428Z,5.93
2022-11-03T21:08:52.463Z,4.60
2022-11-03T21:11:29.504Z,5.13
2022-11-03T21:14:03.775Z,6.07
2022-11-03T21:16:54.633Z,7.38
2022-11-03T21:22:53.240Z,5.32
2022-11-03T21:25:27.327Z,4.72
2022-11-03T21:27:56.756Z,9.07
2022-11-03T21:30:26.783Z,7.40
2022-11-03T21:33:02.049Z,8.38
2022-11-03T21:35:33.773Z,7.50
2022-11-03T21:38:07.674Z,9.63
2022-11-03T21:40:38.842Z,6.88
2022-11-03T21:43:25.275Z,11.38
2022-11-03T21:45:54.139Z,7.63
2022-11-03T21:48:40.726Z,8.23
2022-11-03T21:51:10.288Z,11.23
2022-11-03T21:53:54.539Z,12.75
2022-11-03T21:56:26.756Z,11.15
2022-11-03T21:58:59.302Z,13.20
2022-11-03T22:01:30.316Z,13.25
2022-11-03T22:04:00.172Z,23.17
2022-11-03T22:06:29.432Z,9.55
2022-11-03T22:08:58.494Z,15.70
2022-11-03T22:11:28.743Z,13.27
2022-11-03T22:13:59.525Z,13.15
2022-11-03T22:16:39.017Z,12.50
2022-11-03T22:19:28.183Z,11.07
2022-11-03T22:22:14.989Z,12.80
2022-11-03T22:25:01.701Z,15.05
2022-11-03T22:27:34.190Z,10.63
2022-11-03T22:30:21.155Z,13.70
2022-11-03T22:32:53.235Z,13.15
2022-11-03T22:35:40.695Z,15.88
2022-11-03T22:38:11.404Z,13.02
2022-11-03T22:40:58.385Z,13.25
2022-11-03T22:43:46.411Z,14.82
2022-11-03T22:46:19.093Z,11.85
2022-11-03T22:48:48.068Z,16.20
2022-11-03T22:51:20.120Z,12.70
2022-11-03T22:54:06.589Z,13.30
2022-11-03T22:56:35.978Z,13.70
2022-11-03T22:59:08.313Z,12.95
2022-11-03T23:01:38.431Z,14.00
2022-11-03T23:04:12.244Z,15.05
2022-11-03T23:09:12.354Z,17.85
2022-11-03T23:11:41.346Z,13.85
2022-11-03T23:14:12.765Z,19.17
2022-11-03T23:16:43.536Z,14.82
2022-11-03T23:19:31.276Z,12.25
2022-11-03T23:22:00.725Z,14.18
2022-11-03T23:24:46.309Z,11.45
2022-11-03T23:27:15.736Z,14.77
2022-11-03T23:29:45.885Z,14.63
2022-11-03T23:32:15.017Z,12.10
2022-11-03T23:34:46.354Z,11.60
2022-11-03T23:37:15.687Z,13.02
2022-11-03T23:39:44.951Z,10.60
2022-11-03T23:42:14.016Z,13.32
2022-11-03T23:45:00.467Z,12.10
2022-11-03T23:47:48.773Z,11.93
2022-11-03T23:50:17.846Z,11.38
2022-11-03T23:52:46.861Z,11.75
2022-11-03T23:55:15.782Z,12.35
2022-11-03T23:58:02.368Z,14.75
